Cloverdale, Michigan
Current Conditions -  °F | °C
As of 12:10 PM on Thursday 27 Nov 2014 (Local Time) from KBTL Reporting Station
Light Snow Light Snow  
Wind Chill: -5°   Ceiling: 1300
Heat Index:   Visibility: 1.7mi
Dew Point: -3°   Wind: 10mph
Humidity: 79%   Direction: 240°WSW
Pressure: 30.17"   Gusts: NA
Location:  42.56°N, 85.43°W
Report Text: KBTL 271710Z 24009KT 1 3/4SM -SN BKN013 OVC034 00/M03 A3017 RMK AO2 SNB04 P0000 T00001033 $
Loading
Personal Weather Stations






























Interactive Weather Map New forecast layout! Learn more

10-Day Weather Forecast

Advertisements
Track Severe Weather on mobile